sensor_id;sensor_type;location;lat;lon;timestamp;P1;durP1;ratioP1;P2;durP2;ratioP2
60068;SDS011;45945;53.350;55.922;2023-04-24T00:00:37;9.73;;;5.93;;
60068;SDS011;45945;53.350;55.922;2023-04-24T00:01:41;10.02;;;6.03;;
60068;SDS011;45945;53.350;55.922;2023-04-24T00:02:43;10.52;;;6.50;;
60068;SDS011;45945;53.350;55.922;2023-04-24T00:03:48;9.18;;;5.78;;
60068;SDS011;45945;53.350;55.922;2023-04-24T00:04:49;8.82;;;6.13;;
60068;SDS011;45945;53.350;55.922;2023-04-24T00:05:50;8.57;;;6.05;;
60068;SDS011;45945;53.350;55.922;2023-04-24T00:06:51;9.77;;;6.00;;
60068;SDS011;45945;53.350;55.922;2023-04-24T00:07:57;9.10;;;6.45;;
60068;SDS011;45945;53.350;55.922;2023-04-24T00:08:59;9.77;;;6.15;;
60068;SDS011;45945;53.350;55.922;2023-04-24T00:10:00;9.55;;;5.82;;
60068;SDS011;45945;53.350;55.922;2023-04-24T00:11:01;8.07;;;5.70;;
60068;SDS011;45945;53.350;55.922;2023-04-24T00:12:02;9.05;;;6.10;;
60068;SDS011;45945;53.350;55.922;2023-04-24T00:13:04;9.10;;;5.75;;
60068;SDS011;45945;53.350;55.922;2023-04-24T00:14:05;9.65;;;6.30;;
60068;SDS011;45945;53.350;55.922;2023-04-24T00:15:06;10.02;;;6.00;;
60068;SDS011;45945;53.350;55.922;2023-04-24T00:16:07;9.48;;;5.85;;
60068;SDS011;45945;53.350;55.922;2023-04-24T00:17:09;11.60;;;6.25;;
60068;SDS011;45945;53.350;55.922;2023-04-24T00:18:09;9.25;;;5.85;;
60068;SDS011;45945;53.350;55.922;2023-04-24T00:19:11;9.32;;;6.10;;
60068;SDS011;45945;53.350;55.922;2023-04-24T00:20:13;9.45;;;5.95;;
60068;SDS011;45945;53.350;55.922;2023-04-24T00:21:15;11.95;;;6.63;;
60068;SDS011;45945;53.350;55.922;2023-04-24T00:22:19;9.23;;;5.88;;
60068;SDS011;45945;53.350;55.922;2023-04-24T00:23:21;9.88;;;6.00;;
60068;SDS011;45945;53.350;55.922;2023-04-24T00:24:21;9.32;;;5.90;;
60068;SDS011;45945;53.350;55.922;2023-04-24T00:25:22;9.45;;;6.03;;
60068;SDS011;45945;53.350;55.922;2023-04-24T00:26:23;10.88;;;6.80;;
60068;SDS011;45945;53.350;55.922;2023-04-24T00:27:24;10.88;;;6.95;;
60068;SDS011;45945;53.350;55.922;2023-04-24T00:28:26;11.10;;;6.28;;
60068;SDS011;45945;53.350;55.922;2023-04-24T00:29:26;11.68;;;6.75;;
60068;SDS011;45945;53.350;55.922;2023-04-24T00:30:29;11.02;;;5.97;;
60068;SDS011;45945;53.350;55.922;2023-04-24T00:31:29;9.85;;;5.90;;
60068;SDS011;45945;53.350;55.922;2023-04-24T00:32:30;11.27;;;6.22;;
60068;SDS011;45945;53.350;55.922;2023-04-24T00:33:31;9.75;;;6.13;;
60068;SDS011;45945;53.350;55.922;2023-04-24T00:34:32;9.00;;;6.22;;
60068;SDS011;45945;53.350;55.922;2023-04-24T00:35:33;10.02;;;6.38;;
60068;SDS011;45945;53.350;55.922;2023-04-24T00:36:34;10.30;;;6.22;;
60068;SDS011;45945;53.350;55.922;2023-04-24T00:37:34;10.00;;;6.72;;
60068;SDS011;45945;53.350;55.922;2023-04-24T00:38:36;10.35;;;6.45;;
60068;SDS011;45945;53.350;55.922;2023-04-24T00:39:37;9.23;;;6.45;;
60068;SDS011;45945;53.350;55.922;2023-04-24T00:40:38;13.05;;;6.90;;
60068;SDS011;45945;53.350;55.922;2023-04-24T00:41:39;11.15;;;6.85;;
60068;SDS011;45945;53.350;55.922;2023-04-24T00:42:40;11.50;;;6.47;;
60068;SDS011;45945;53.350;55.922;2023-04-24T00:43:41;10.40;;;6.93;;
60068;SDS011;45945;53.350;55.922;2023-04-24T00:44:42;12.98;;;7.07;;
60068;SDS011;45945;53.350;55.922;2023-04-24T00:45:43;12.27;;;7.15;;
60068;SDS011;45945;53.350;55.922;2023-04-24T00:46:44;11.23;;;6.15;;
60068;SDS011;45945;53.350;55.922;2023-04-24T00:47:46;10.93;;;6.70;;
60068;SDS011;45945;53.350;55.922;2023-04-24T00:48:47;10.23;;;7.05;;
60068;SDS011;45945;53.350;55.922;2023-04-24T00:49:48;11.52;;;6.95;;
60068;SDS011;45945;53.350;55.922;2023-04-24T00:50:48;10.93;;;6.68;;
60068;SDS011;45945;53.350;55.922;2023-04-24T00:51:49;9.98;;;6.57;;
60068;SDS011;45945;53.350;55.922;2023-04-24T00:52:52;15.73;;;7.80;;
60068;SDS011;45945;53.350;55.922;2023-04-24T00:53:53;11.65;;;7.00;;
60068;SDS011;45945;53.350;55.922;2023-04-24T00:54:54;10.57;;;5.95;;
60068;SDS011;45945;53.350;55.922;2023-04-24T00:55:56;9.90;;;6.30;;
60068;SDS011;45945;53.350;55.922;2023-04-24T00:56:57;10.00;;;6.75;;
60068;SDS011;45945;53.350;55.922;2023-04-24T00:57:58;10.05;;;6.82;;
60068;SDS011;45945;53.350;55.922;2023-04-24T00:58:59;11.00;;;6.90;;
60068;SDS011;45945;53.350;55.922;2023-04-24T01:00:00;10.77;;;7.07;;
60068;SDS011;45945;53.350;55.922;2023-04-24T01:01:01;9.85;;;5.40;;
60068;SDS011;45945;53.350;55.922;2023-04-24T01:02:03;10.15;;;6.45;;
60068;SDS011;45945;53.350;55.922;2023-04-24T01:03:04;11.93;;;7.00;;
60068;SDS011;45945;53.350;55.922;2023-04-24T01:04:07;9.88;;;6.07;;
60068;SDS011;45945;53.350;55.922;2023-04-24T01:05:09;12.50;;;7.22;;
60068;SDS011;45945;53.350;55.922;2023-04-24T01:06:10;12.02;;;7.20;;
60068;SDS011;45945;53.350;55.922;2023-04-24T01:07:11;11.10;;;6.78;;
60068;SDS011;45945;53.350;55.922;2023-04-24T01:08:12;10.65;;;6.70;;
60068;SDS011;45945;53.350;55.922;2023-04-24T01:09:14;10.85;;;6.28;;
60068;SDS011;45945;53.350;55.922;2023-04-24T01:10:15;9.85;;;6.53;;
60068;SDS011;45945;53.350;55.922;2023-04-24T01:11:20;12.02;;;7.18;;
60068;SDS011;45945;53.350;55.922;2023-04-24T01:12:21;10.95;;;6.53;;
60068;SDS011;45945;53.350;55.922;2023-04-24T01:13:22;11.68;;;7.70;;
60068;SDS011;45945;53.350;55.922;2023-04-24T01:14:23;10.05;;;6.43;;
60068;SDS011;45945;53.350;55.922;2023-04-24T01:15:24;12.13;;;7.22;;
60068;SDS011;45945;53.350;55.922;2023-04-24T01:16:24;11.23;;;6.80;;
60068;SDS011;45945;53.350;55.922;2023-04-24T01:17:28;11.43;;;6.50;;
60068;SDS011;45945;53.350;55.922;2023-04-24T01:18:30;10.60;;;7.13;;
60068;SDS011;45945;53.350;55.922;2023-04-24T01:19:31;10.85;;;6.80;;
60068;SDS011;45945;53.350;55.922;2023-04-24T01:20:32;10.85;;;7.07;;
60068;SDS011;45945;53.350;55.922;2023-04-24T01:21:34;10.85;;;7.05;;
60068;SDS011;45945;53.350;55.922;2023-04-24T01:22:37;11.30;;;7.03;;
60068;SDS011;45945;53.350;55.922;2023-04-24T01:23:38;13.05;;;7.35;;
60068;SDS011;45945;53.350;55.922;2023-04-24T01:24:39;10.38;;;6.65;;
60068;SDS011;45945;53.350;55.922;2023-04-24T01:25:40;11.07;;;6.80;;
60068;SDS011;45945;53.350;55.922;2023-04-24T01:26:40;11.40;;;6.95;;
60068;SDS011;45945;53.350;55.922;2023-04-24T01:27:41;11.73;;;6.93;;
60068;SDS011;45945;53.350;55.922;2023-04-24T01:28:42;11.25;;;6.25;;
60068;SDS011;45945;53.350;55.922;2023-04-24T01:29:43;10.23;;;6.38;;
60068;SDS011;45945;53.350;55.922;2023-04-24T01:30:45;11.55;;;6.80;;
60068;SDS011;45945;53.350;55.922;2023-04-24T01:31:46;10.88;;;6.30;;
60068;SDS011;45945;53.350;55.922;2023-04-24T01:32:47;10.45;;;6.57;;
60068;SDS011;45945;53.350;55.922;2023-04-24T01:33:49;10.98;;;6.88;;
60068;SDS011;45945;53.350;55.922;2023-04-24T01:34:50;11.43;;;7.07;;
60068;SDS011;45945;53.350;55.922;2023-04-24T01:35:51;10.98;;;6.78;;
60068;SDS011;45945;53.350;55.922;2023-04-24T01:36:52;10.88;;;6.95;;
60068;SDS011;45945;53.350;55.922;2023-04-24T01:37:54;11.13;;;6.57;;
60068;SDS011;45945;53.350;55.922;2023-04-24T01:38:55;9.52;;;6.05;;
60068;SDS011;45945;53.350;55.922;2023-04-24T01:39:56;10.43;;;6.65;;
60068;SDS011;45945;53.350;55.922;2023-04-24T01:40:56;11.20;;;6.97;;
60068;SDS011;45945;53.350;55.922;2023-04-24T01:41:59;9.45;;;6.20;;
60068;SDS011;45945;53.350;55.922;2023-04-24T01:43:01;10.10;;;6.68;;
60068;SDS011;45945;53.350;55.922;2023-04-24T01:44:04;11.60;;;7.25;;
60068;SDS011;45945;53.350;55.922;2023-04-24T01:45:05;11.07;;;7.47;;
60068;SDS011;45945;53.350;55.922;2023-04-24T01:46:07;11.95;;;7.28;;
60068;SDS011;45945;53.350;55.922;2023-04-24T01:47:10;12.43;;;7.55;;
60068;SDS011;45945;53.350;55.922;2023-04-24T01:48:11;10.32;;;7.20;;
60068;SDS011;45945;53.350;55.922;2023-04-24T01:49:12;11.13;;;7.22;;
60068;SDS011;45945;53.350;55.922;2023-04-24T01:50:14;11.32;;;6.90;;
60068;SDS011;45945;53.350;55.922;2023-04-24T01:51:14;10.48;;;6.75;;
60068;SDS011;45945;53.350;55.922;2023-04-24T01:52:16;13.50;;;7.38;;
60068;SDS011;45945;53.350;55.922;2023-04-24T01:53:18;10.82;;;6.78;;
60068;SDS011;45945;53.350;55.922;2023-04-24T01:54:19;12.00;;;6.90;;
60068;SDS011;45945;53.350;55.922;2023-04-24T01:55:20;11.38;;;6.45;;
60068;SDS011;45945;53.350;55.922;2023-04-24T01:56:21;11.48;;;6.60;;
60068;SDS011;45945;53.350;55.922;2023-04-24T01:57:22;9.43;;;4.78;;
60068;SDS011;45945;53.350;55.922;2023-04-24T01:58:23;12.32;;;6.40;;
60068;SDS011;45945;53.350;55.922;2023-04-24T01:59:24;10.52;;;6.03;;
60068;SDS011;45945;53.350;55.922;2023-04-24T02:00:26;12.00;;;7.03;;
60068;SDS011;45945;53.350;55.922;2023-04-24T02:01:27;10.02;;;5.13;;
60068;SDS011;45945;53.350;55.922;2023-04-24T02:02:33;9.77;;;6.45;;
60068;SDS011;45945;53.350;55.922;2023-04-24T02:03:34;9.80;;;6.57;;
60068;SDS011;45945;53.350;55.922;2023-04-24T02:04:35;11.45;;;7.13;;
60068;SDS011;45945;53.350;55.922;2023-04-24T02:05:36;11.30;;;6.03;;
60068;SDS011;45945;53.350;55.922;2023-04-24T02:06:38;10.73;;;6.65;;
60068;SDS011;45945;53.350;55.922;2023-04-24T02:07:39;11.93;;;7.22;;
60068;SDS011;45945;53.350;55.922;2023-04-24T02:08:40;10.95;;;6.25;;
60068;SDS011;45945;53.350;55.922;2023-04-24T02:09:41;8.05;;;4.28;;
60068;SDS011;45945;53.350;55.922;2023-04-24T02:10:42;10.77;;;6.57;;
60068;SDS011;45945;53.350;55.922;2023-04-24T02:11:42;15.07;;;7.85;;
60068;SDS011;45945;53.350;55.922;2023-04-24T02:12:43;9.80;;;6.20;;
60068;SDS011;45945;53.350;55.922;2023-04-24T02:13:44;10.13;;;6.47;;
60068;SDS011;45945;53.350;55.922;2023-04-24T02:14:45;10.65;;;6.13;;
60068;SDS011;45945;53.350;55.922;2023-04-24T02:15:46;11.32;;;6.78;;
60068;SDS011;45945;53.350;55.922;2023-04-24T02:16:47;9.38;;;5.75;;
60068;SDS011;45945;53.350;55.922;2023-04-24T02:17:48;10.73;;;7.00;;
60068;SDS011;45945;53.350;55.922;2023-04-24T02:18:49;11.55;;;7.07;;
60068;SDS011;45945;53.350;55.922;2023-04-24T02:19:51;10.25;;;5.78;;
60068;SDS011;45945;53.350;55.922;2023-04-24T02:20:52;10.93;;;6.43;;
60068;SDS011;45945;53.350;55.922;2023-04-24T02:21:54;9.68;;;6.90;;
60068;SDS011;45945;53.350;55.922;2023-04-24T02:22:55;11.57;;;6.78;;
60068;SDS011;45945;53.350;55.922;2023-04-24T02:23:57;11.02;;;6.63;;
60068;SDS011;45945;53.350;55.922;2023-04-24T02:24:58;10.80;;;5.85;;
60068;SDS011;45945;53.350;55.922;2023-04-24T02:25:59;9.40;;;6.50;;
60068;SDS011;45945;53.350;55.922;2023-04-24T02:27:00;9.70;;;6.22;;
60068;SDS011;45945;53.350;55.922;2023-04-24T02:28:03;11.35;;;6.30;;
60068;SDS011;45945;53.350;55.922;2023-04-24T02:29:04;10.45;;;6.57;;
60068;SDS011;45945;53.350;55.922;2023-04-24T02:30:05;10.23;;;5.93;;
60068;SDS011;45945;53.350;55.922;2023-04-24T02:31:07;9.57;;;5.57;;
60068;SDS011;45945;53.350;55.922;2023-04-24T02:32:07;11.00;;;6.38;;
60068;SDS011;45945;53.350;55.922;2023-04-24T02:33:13;10.05;;;5.80;;
60068;SDS011;45945;53.350;55.922;2023-04-24T02:34:14;9.73;;;6.57;;
60068;SDS011;45945;53.350;55.922;2023-04-24T02:35:15;12.88;;;7.00;;
60068;SDS011;45945;53.350;55.922;2023-04-24T02:36:16;9.15;;;6.07;;
60068;SDS011;45945;53.350;55.922;2023-04-24T02:37:17;8.38;;;5.95;;
60068;SDS011;45945;53.350;55.922;2023-04-24T02:38:18;10.50;;;6.80;;
60068;SDS011;45945;53.350;55.922;2023-04-24T02:39:19;9.85;;;5.88;;
60068;SDS011;45945;53.350;55.922;2023-04-24T02:40:19;10.02;;;6.70;;
60068;SDS011;45945;53.350;55.922;2023-04-24T02:41:21;10.40;;;6.18;;
60068;SDS011;45945;53.350;55.922;2023-04-24T02:42:22;8.52;;;5.22;;
60068;SDS011;45945;53.350;55.922;2023-04-24T02:43:23;10.63;;;6.95;;
60068;SDS011;45945;53.350;55.922;2023-04-24T02:44:24;12.25;;;6.57;;
60068;SDS011;45945;53.350;55.922;2023-04-24T02:45:25;10.32;;;6.55;;
60068;SDS011;45945;53.350;55.922;2023-04-24T02:46:26;12.07;;;6.82;;
60068;SDS011;45945;53.350;55.922;2023-04-24T02:47:27;11.80;;;6.15;;
60068;SDS011;45945;53.350;55.922;2023-04-24T02:48:27;11.05;;;6.28;;
60068;SDS011;45945;53.350;55.922;2023-04-24T02:49:28;9.43;;;6.35;;
60068;SDS011;45945;53.350;55.922;2023-04-24T02:50:29;11.85;;;7.13;;
60068;SDS011;45945;53.350;55.922;2023-04-24T02:51:30;9.75;;;5.47;;
60068;SDS011;45945;53.350;55.922;2023-04-24T02:52:31;10.48;;;5.80;;
60068;SDS011;45945;53.350;55.922;2023-04-24T02:53:32;7.93;;;4.18;;
60068;SDS011;45945;53.350;55.922;2023-04-24T02:54:33;9.90;;;6.05;;
60068;SDS011;45945;53.350;55.922;2023-04-24T02:55:34;10.75;;;5.60;;
60068;SDS011;45945;53.350;55.922;2023-04-24T02:56:35;11.40;;;6.45;;
60068;SDS011;45945;53.350;55.922;2023-04-24T02:57:37;12.93;;;6.55;;
60068;SDS011;45945;53.350;55.922;2023-04-24T02:58:38;8.27;;;5.07;;
60068;SDS011;45945;53.350;55.922;2023-04-24T02:59:39;8.95;;;4.80;;
60068;SDS011;45945;53.350;55.922;2023-04-24T03:00:40;10.73;;;5.65;;
60068;SDS011;45945;53.350;55.922;2023-04-24T03:01:41;8.82;;;5.93;;
60068;SDS011;45945;53.350;55.922;2023-04-24T03:02:42;8.95;;;4.88;;
60068;SDS011;45945;53.350;55.922;2023-04-24T03:03:43;9.95;;;5.53;;
60068;SDS011;45945;53.350;55.922;2023-04-24T03:04:44;11.52;;;5.70;;
60068;SDS011;45945;53.350;55.922;2023-04-24T03:05:45;11.60;;;6.63;;
60068;SDS011;45945;53.350;55.922;2023-04-24T03:06:46;11.98;;;6.10;;
60068;SDS011;45945;53.350;55.922;2023-04-24T03:07:47;9.68;;;5.65;;
60068;SDS011;45945;53.350;55.922;2023-04-24T03:08:48;8.27;;;4.75;;
60068;SDS011;45945;53.350;55.922;2023-04-24T03:09:49;10.40;;;5.85;;
60068;SDS011;45945;53.350;55.922;2023-04-24T03:10:50;10.38;;;5.97;;
60068;SDS011;45945;53.350;55.922;2023-04-24T03:11:51;9.93;;;5.82;;
60068;SDS011;45945;53.350;55.922;2023-04-24T03:12:52;10.27;;;4.97;;
60068;SDS011;45945;53.350;55.922;2023-04-24T03:13:53;9.85;;;5.72;;
60068;SDS011;45945;53.350;55.922;2023-04-24T03:14:54;8.45;;;4.70;;
60068;SDS011;45945;53.350;55.922;2023-04-24T03:15:54;9.93;;;6.20;;
60068;SDS011;45945;53.350;55.922;2023-04-24T03:16:55;9.77;;;6.03;;
60068;SDS011;45945;53.350;55.922;2023-04-24T03:17:57;11.45;;;6.13;;
60068;SDS011;45945;53.350;55.922;2023-04-24T03:18:58;9.75;;;6.60;;
60068;SDS011;45945;53.350;55.922;2023-04-24T03:20:02;9.90;;;6.57;;
60068;SDS011;45945;53.350;55.922;2023-04-24T03:21:03;11.68;;;7.05;;
60068;SDS011;45945;53.350;55.922;2023-04-24T03:22:05;11.10;;;6.32;;
60068;SDS011;45945;53.350;55.922;2023-04-24T03:23:07;10.75;;;6.47;;
60068;SDS011;45945;53.350;55.922;2023-04-24T03:24:09;9.70;;;5.75;;
60068;SDS011;45945;53.350;55.922;2023-04-24T03:25:12;9.10;;;5.13;;
60068;SDS011;45945;53.350;55.922;2023-04-24T03:26:14;9.75;;;5.38;;
60068;SDS011;45945;53.350;55.922;2023-04-24T03:27:26;10.98;;;5.88;;
60068;SDS011;45945;53.350;55.922;2023-04-24T03:28:59;9.93;;;6.40;;
60068;SDS011;45945;53.350;55.922;2023-04-24T03:30:01;9.93;;;6.25;;
60068;SDS011;45945;53.350;55.922;2023-04-24T03:31:17;10.45;;;6.10;;
60068;SDS011;45945;53.350;55.922;2023-04-24T03:32:19;10.73;;;5.85;;
60068;SDS011;45945;53.350;55.922;2023-04-24T03:33:21;11.25;;;5.85;;
60068;SDS011;45945;53.350;55.922;2023-04-24T03:34:31;9.77;;;5.97;;
60068;SDS011;45945;53.350;55.922;2023-04-24T03:35:33;12.35;;;5.45;;
60068;SDS011;45945;53.350;55.922;2023-04-24T03:36:36;9.43;;;6.07;;
60068;SDS011;45945;53.350;55.922;2023-04-24T03:37:40;9.77;;;5.90;;
60068;SDS011;45945;53.350;55.922;2023-04-24T03:38:59;7.75;;;5.00;;
60068;SDS011;45945;53.350;55.922;2023-04-24T03:40:06;10.00;;;5.55;;
60068;SDS011;45945;53.350;55.922;2023-04-24T03:41:09;8.45;;;5.43;;
60068;SDS011;45945;53.350;55.922;2023-04-24T03:42:15;10.25;;;6.00;;
60068;SDS011;45945;53.350;55.922;2023-04-24T03:43:26;11.80;;;6.20;;
60068;SDS011;45945;53.350;55.922;2023-04-24T03:44:29;8.77;;;5.30;;
60068;SDS011;45945;53.350;55.922;2023-04-24T03:45:30;8.73;;;5.70;;
60068;SDS011;45945;53.350;55.922;2023-04-24T03:46:31;10.75;;;5.80;;
60068;SDS011;45945;53.350;55.922;2023-04-24T03:47:34;10.15;;;5.82;;
60068;SDS011;45945;53.350;55.922;2023-04-24T03:48:38;8.73;;;5.47;;
60068;SDS011;45945;53.350;55.922;2023-04-24T03:49:40;9.30;;;4.93;;
60068;SDS011;45945;53.350;55.922;2023-04-24T03:50:42;9.77;;;4.80;;
60068;SDS011;45945;53.350;55.922;2023-04-24T03:51:45;9.00;;;5.45;;
60068;SDS011;45945;53.350;55.922;2023-04-24T03:52:54;8.38;;;5.03;;
60068;SDS011;45945;53.350;55.922;2023-04-24T03:54:06;9.90;;;5.97;;
60068;SDS011;45945;53.350;55.922;2023-04-24T03:55:10;8.18;;;4.47;;
60068;SDS011;45945;53.350;55.922;2023-04-24T03:56:17;8.40;;;5.68;;
60068;SDS011;45945;53.350;55.922;2023-04-24T03:57:18;10.25;;;5.72;;
60068;SDS011;45945;53.350;55.922;2023-04-24T03:58:31;8.52;;;5.30;;
60068;SDS011;45945;53.350;55.922;2023-04-24T03:59:32;9.52;;;5.82;;
60068;SDS011;45945;53.350;55.922;2023-04-24T04:00:45;8.10;;;5.05;;
60068;SDS011;45945;53.350;55.922;2023-04-24T04:02:07;10.15;;;5.30;;
60068;SDS011;45945;53.350;55.922;2023-04-24T04:03:08;9.55;;;5.32;;
60068;SDS011;45945;53.350;55.922;2023-04-24T04:04:09;9.90;;;6.03;;
60068;SDS011;45945;53.350;55.922;2023-04-24T04:05:16;8.25;;;5.00;;
60068;SDS011;45945;53.350;55.922;2023-04-24T04:06:17;9.35;;;5.22;;
60068;SDS011;45945;53.350;55.922;2023-04-24T04:07:20;9.27;;;5.60;;
60068;SDS011;45945;53.350;55.922;2023-04-24T04:08:21;10.23;;;5.47;;
60068;SDS011;45945;53.350;55.922;2023-04-24T04:09:22;9.68;;;6.47;;
60068;SDS011;45945;53.350;55.922;2023-04-24T04:10:23;7.30;;;4.82;;
60068;SDS011;45945;53.350;55.922;2023-04-24T04:11:25;7.63;;;5.05;;
60068;SDS011;45945;53.350;55.922;2023-04-24T04:12:26;8.10;;;5.00;;
60068;SDS011;45945;53.350;55.922;2023-04-24T04:13:29;10.77;;;5.70;;
60068;SDS011;45945;53.350;55.922;2023-04-24T04:14:31;9.75;;;4.75;;
60068;SDS011;45945;53.350;55.922;2023-04-24T04:15:32;8.02;;;4.95;;
60068;SDS011;45945;53.350;55.922;2023-04-24T04:16:33;10.80;;;5.60;;
60068;SDS011;45945;53.350;55.922;2023-04-24T04:17:37;8.30;;;5.47;;
60068;SDS011;45945;53.350;55.922;2023-04-24T04:18:41;7.85;;;4.82;;
60068;SDS011;45945;53.350;55.922;2023-04-24T04:19:42;9.13;;;5.50;;
60068;SDS011;45945;53.350;55.922;2023-04-24T04:20:43;9.55;;;4.50;;
60068;SDS011;45945;53.350;55.922;2023-04-24T04:21:46;10.15;;;5.60;;
60068;SDS011;45945;53.350;55.922;2023-04-24T04:23:00;9.48;;;4.90;;
60068;SDS011;45945;53.350;55.922;2023-04-24T04:24:12;7.60;;;4.68;;
60068;SDS011;45945;53.350;55.922;2023-04-24T04:25:17;8.25;;;4.22;;
60068;SDS011;45945;53.350;55.922;2023-04-24T04:26:20;7.97;;;5.10;;
60068;SDS011;45945;53.350;55.922;2023-04-24T04:27:39;8.05;;;4.80;;
60068;SDS011;45945;53.350;55.922;2023-04-24T04:28:44;7.97;;;4.70;;
60068;SDS011;45945;53.350;55.922;2023-04-24T04:29:46;7.43;;;4.82;;
60068;SDS011;45945;53.350;55.922;2023-04-24T04:30:49;7.95;;;4.85;;
60068;SDS011;45945;53.350;55.922;2023-04-24T04:31:52;9.57;;;5.03;;
60068;SDS011;45945;53.350;55.922;2023-04-24T04:32:53;7.70;;;4.85;;
60068;SDS011;45945;53.350;55.922;2023-04-24T04:33:55;8.65;;;4.75;;
60068;SDS011;45945;53.350;55.922;2023-04-24T04:34:56;8.27;;;4.55;;
60068;SDS011;45945;53.350;55.922;2023-04-24T04:36:00;7.38;;;4.38;;
60068;SDS011;45945;53.350;55.922;2023-04-24T04:37:03;7.47;;;4.57;;
60068;SDS011;45945;53.350;55.922;2023-04-24T04:38:22;9.60;;;4.68;;
60068;SDS011;45945;53.350;55.922;2023-04-24T04:39:32;9.57;;;4.78;;
60068;SDS011;45945;53.350;55.922;2023-04-24T04:40:59;7.82;;;4.50;;
60068;SDS011;45945;53.350;55.922;2023-04-24T04:42:03;9.95;;;4.85;;
60068;SDS011;45945;53.350;55.922;2023-04-24T04:43:11;7.70;;;4.20;;
60068;SDS011;45945;53.350;55.922;2023-04-24T04:44:19;7.85;;;4.30;;
60068;SDS011;45945;53.350;55.922;2023-04-24T04:45:20;6.32;;;3.83;;
60068;SDS011;45945;53.350;55.922;2023-04-24T04:46:41;6.78;;;3.75;;
60068;SDS011;45945;53.350;55.922;2023-04-24T04:47:53;8.23;;;4.20;;
60068;SDS011;45945;53.350;55.922;2023-04-24T04:48:55;6.93;;;4.53;;
60068;SDS011;45945;53.350;55.922;2023-04-24T04:49:57;7.45;;;4.47;;
60068;SDS011;45945;53.350;55.922;2023-04-24T04:51:00;7.70;;;4.30;;
60068;SDS011;45945;53.350;55.922;2023-04-24T04:52:02;8.45;;;4.47;;
60068;SDS011;45945;53.350;55.922;2023-04-24T04:53:03;8.20;;;4.15;;
60068;SDS011;45945;53.350;55.922;2023-04-24T04:54:07;6.72;;;4.15;;
60068;SDS011;45945;53.350;55.922;2023-04-24T04:55:09;7.13;;;4.10;;
60068;SDS011;45945;53.350;55.922;2023-04-24T04:56:33;7.80;;;3.97;;
60068;SDS011;45945;53.350;55.922;2023-04-24T04:57:35;7.72;;;4.15;;
60068;SDS011;45945;53.350;55.922;2023-04-24T04:58:38;7.20;;;4.07;;
60068;SDS011;45945;53.350;55.922;2023-04-24T04:59:43;7.25;;;4.20;;
60068;SDS011;45945;53.350;55.922;2023-04-24T05:00:50;7.97;;;3.85;;
60068;SDS011;45945;53.350;55.922;2023-04-24T05:02:00;8.27;;;4.00;;
60068;SDS011;45945;53.350;55.922;2023-04-24T05:03:01;6.88;;;3.70;;
60068;SDS011;45945;53.350;55.922;2023-04-24T05:04:03;7.05;;;3.97;;
60068;SDS011;45945;53.350;55.922;2023-04-24T05:05:04;7.32;;;4.10;;
60068;SDS011;45945;53.350;55.922;2023-04-24T05:06:05;7.65;;;4.53;;
60068;SDS011;45945;53.350;55.922;2023-04-24T05:07:09;8.98;;;4.13;;
60068;SDS011;45945;53.350;55.922;2023-04-24T05:08:13;7.30;;;4.07;;
60068;SDS011;45945;53.350;55.922;2023-04-24T05:09:14;7.65;;;4.28;;
60068;SDS011;45945;53.350;55.922;2023-04-24T05:10:22;6.65;;;4.22;;
60068;SDS011;45945;53.350;55.922;2023-04-24T05:11:24;7.82;;;3.85;;
60068;SDS011;45945;53.350;55.922;2023-04-24T05:12:26;6.90;;;3.80;;
60068;SDS011;45945;53.350;55.922;2023-04-24T05:13:28;7.22;;;4.30;;
60068;SDS011;45945;53.350;55.922;2023-04-24T05:14:29;8.55;;;4.70;;
60068;SDS011;45945;53.350;55.922;2023-04-24T05:15:30;8.35;;;4.57;;
60068;SDS011;45945;53.350;55.922;2023-04-24T05:16:33;8.00;;;4.10;;
60068;SDS011;45945;53.350;55.922;2023-04-24T05:17:34;9.57;;;4.57;;
60068;SDS011;45945;53.350;55.922;2023-04-24T05:18:36;9.10;;;4.60;;
60068;SDS011;45945;53.350;55.922;2023-04-24T05:19:38;7.30;;;3.97;;
60068;SDS011;45945;53.350;55.922;2023-04-24T05:20:40;7.68;;;3.78;;
60068;SDS011;45945;53.350;55.922;2023-04-24T05:21:41;7.90;;;4.05;;
60068;SDS011;45945;53.350;55.922;2023-04-24T05:22:43;8.10;;;4.00;;
60068;SDS011;45945;53.350;55.922;2023-04-24T05:23:44;8.68;;;4.20;;
60068;SDS011;45945;53.350;55.922;2023-04-24T05:24:48;7.10;;;4.30;;
60068;SDS011;45945;53.350;55.922;2023-04-24T05:26:02;7.65;;;4.25;;
60068;SDS011;45945;53.350;55.922;2023-04-24T05:27:04;8.23;;;4.10;;
60068;SDS011;45945;53.350;55.922;2023-04-24T05:28:10;10.27;;;5.65;;
60068;SDS011;45945;53.350;55.922;2023-04-24T05:29:12;8.27;;;5.65;;
60068;SDS011;45945;53.350;55.922;2023-04-24T05:30:13;7.80;;;4.35;;
60068;SDS011;45945;53.350;55.922;2023-04-24T05:31:14;8.18;;;4.00;;
60068;SDS011;45945;53.350;55.922;2023-04-24T05:32:15;8.32;;;3.97;;
60068;SDS011;45945;53.350;55.922;2023-04-24T05:33:16;6.72;;;4.10;;
60068;SDS011;45945;53.350;55.922;2023-04-24T05:34:17;8.13;;;4.15;;
60068;SDS011;45945;53.350;55.922;2023-04-24T05:35:23;7.82;;;4.07;;
60068;SDS011;45945;53.350;55.922;2023-04-24T05:36:25;7.55;;;4.05;;
60068;SDS011;45945;53.350;55.922;2023-04-24T05:37:27;9.25;;;4.13;;
60068;SDS011;45945;53.350;55.922;2023-04-24T05:38:28;7.63;;;3.90;;
60068;SDS011;45945;53.350;55.922;2023-04-24T05:39:29;7.50;;;4.20;;
60068;SDS011;45945;53.350;55.922;2023-04-24T05:40:30;7.00;;;3.97;;
60068;SDS011;45945;53.350;55.922;2023-04-24T05:41:31;8.48;;;3.90;;
60068;SDS011;45945;53.350;55.922;2023-04-24T05:42:32;9.10;;;3.67;;
60068;SDS011;45945;53.350;55.922;2023-04-24T05:43:33;7.22;;;3.85;;
60068;SDS011;45945;53.350;55.922;2023-04-24T05:44:34;9.30;;;3.92;;
60068;SDS011;45945;53.350;55.922;2023-04-24T05:45:35;6.75;;;4.05;;
60068;SDS011;45945;53.350;55.922;2023-04-24T05:46:37;7.30;;;3.65;;
60068;SDS011;45945;53.350;55.922;2023-04-24T05:47:38;7.00;;;3.72;;
60068;SDS011;45945;53.350;55.922;2023-04-24T05:48:39;7.75;;;4.00;;
60068;SDS011;45945;53.350;55.922;2023-04-24T05:49:40;6.57;;;3.42;;
60068;SDS011;45945;53.350;55.922;2023-04-24T05:50:42;8.20;;;4.00;;
60068;SDS011;45945;53.350;55.922;2023-04-24T05:51:43;5.38;;;3.05;;
60068;SDS011;45945;53.350;55.922;2023-04-24T05:52:44;6.95;;;3.80;;
60068;SDS011;45945;53.350;55.922;2023-04-24T05:54:00;6.88;;;3.60;;
60068;SDS011;45945;53.350;55.922;2023-04-24T05:55:02;7.57;;;3.78;;
60068;SDS011;45945;53.350;55.922;2023-04-24T05:56:07;7.00;;;3.30;;
60068;SDS011;45945;53.350;55.922;2023-04-24T05:57:09;7.18;;;3.83;;
60068;SDS011;45945;53.350;55.922;2023-04-24T05:58:33;10.05;;;3.83;;
60068;SDS011;45945;53.350;55.922;2023-04-24T05:59:36;5.85;;;3.25;;
60068;SDS011;45945;53.350;55.922;2023-04-24T06:00:37;7.97;;;3.67;;
60068;SDS011;45945;53.350;55.922;2023-04-24T06:01:42;8.65;;;3.30;;
60068;SDS011;45945;53.350;55.922;2023-04-24T06:02:48;6.10;;;3.35;;
60068;SDS011;45945;53.350;55.922;2023-04-24T06:03:49;7.15;;;3.63;;
60068;SDS011;45945;53.350;55.922;2023-04-24T06:04:50;6.75;;;3.50;;
60068;SDS011;45945;53.350;55.922;2023-04-24T06:05:52;8.85;;;3.60;;
60068;SDS011;45945;53.350;55.922;2023-04-24T06:06:54;8.82;;;3.60;;
60068;SDS011;45945;53.350;55.922;2023-04-24T06:07:56;6.53;;;3.58;;
60068;SDS011;45945;53.350;55.922;2023-04-24T06:09:01;6.50;;;3.28;;
60068;SDS011;45945;53.350;55.922;2023-04-24T06:10:03;8.18;;;3.88;;